Time;durP1;ratioP1;P1;durP2;ratioP2;P2;SDS_P1;SDS_P2;PMS_P1;PMS_P2;Temp;Humidity;BMP_temperature;BMP_pressure;BME280_temperature;BME280_humidity;BME280_pressure;Samples;Min_cycle;Max_cycle;Signal;HPM_P1;HPM_P2
2021/08/28 00:01:34;;;;;;;4.40;2.97;;;;;;;;;;4991929;28;20420;-90
2021/08/28 00:04:01;;;;;;;3.57;2.87;;;;;;;;;;4991180;28;20404;-91
2021/08/28 00:06:28;;;;;;;3.63;2.90;;;;;;;;;;4993043;28;20415;-89
2021/08/28 00:08:56;;;;;;;4.30;3.50;;;;;;;;;;4994444;28;20420;-90
2021/08/28 00:11:23;;;;;;;4.72;2.88;;;;;;;;;;5001007;28;20409;-89
2021/08/28 00:13:50;;;;;;;3.65;3.00;;;;;;;;;;5015410;28;20425;-89
2021/08/28 00:16:17;;;;;;;5.63;3.00;;;;;;;;;;5012814;28;20438;-90
2021/08/28 00:18:44;;;;;;;4.95;3.35;;;;;;;;;;4987926;28;20408;-90
2021/08/28 00:21:11;;;;;;;4.70;3.20;;;;;;;;;;5008139;28;20403;-90
2021/08/28 00:23:38;;;;;;;3.97;3.20;;;;;;;;;;5008471;28;20419;-91
2021/08/28 00:26:07;;;;;;;3.78;3.00;;;;;;;;;;5008446;28;20420;-91
2021/08/28 00:28:34;;;;;;;4.50;2.63;;;;;;;;;;5008289;28;20423;-90
2021/08/28 00:31:00;;;;;;;3.85;2.75;;;;;;;;;;5008273;28;20418;-89
2021/08/28 00:33:27;;;;;;;4.22;3.05;;;;;;;;;;5002958;28;20420;-88
2021/08/28 00:35:54;;;;;;;4.80;3.08;;;;;;;;;;4991835;28;20439;-89
2021/08/28 00:38:21;;;;;;;4.17;2.97;;;;;;;;;;5008776;28;20965;-92
2021/08/28 00:40:48;;;;;;;5.17;3.00;;;;;;;;;;5008633;28;20417;-91
2021/08/28 00:43:16;;;;;;;4.32;2.90;;;;;;;;;;5009231;28;20415;-90
2021/08/28 00:45:44;;;;;;;4.07;2.80;;;;;;;;;;4987002;28;20948;-91
2021/08/28 00:48:12;;;;;;;3.60;2.95;;;;;;;;;;5008465;28;20399;-90
2021/08/28 00:50:42;;;;;;;4.00;2.83;;;;;;;;;;5007878;28;20427;-91
2021/08/28 00:53:10;;;;;;;3.17;2.85;;;;;;;;;;5007793;28;20787;-90
2021/08/28 00:55:39;;;;;;;3.90;2.72;;;;;;;;;;5005651;28;20416;-91
2021/08/28 00:58:06;;;;;;;3.77;2.63;;;;;;;;;;4998238;28;20408;-91
2021/08/28 01:00:39;;;;;;;3.35;2.63;;;;;;;;;;4990567;28;20425;-91
2021/08/28 01:03:08;;;;;;;3.40;2.70;;;;;;;;;;4994241;28;20522;-91
2021/08/28 01:05:40;;;;;;;3.50;2.80;;;;;;;;;;5005099;28;20426;-91
2021/08/28 01:08:16;;;;;;;3.25;2.60;;;;;;;;;;4994070;28;20774;-90
2021/08/28 01:10:51;;;;;;;3.15;2.50;;;;;;;;;;4985871;28;20417;-91
2021/08/28 01:13:18;;;;;;;3.20;2.33;;;;;;;;;;4986529;28;20774;-91
2021/08/28 01:15:49;;;;;;;3.83;2.35;;;;;;;;;;4986421;28;20417;-90
2021/08/28 01:18:18;;;;;;;3.43;2.33;;;;;;;;;;4986564;28;20409;-89
2021/08/28 01:20:56;;;;;;;2.92;2.17;;;;;;;;;;4990291;28;20412;-92
2021/08/28 01:23:24;;;;;;;2.60;2.28;;;;;;;;;;4986866;28;20750;-91
2021/08/28 01:25:54;;;;;;;2.72;2.22;;;;;;;;;;4993210;28;20423;-90
2021/08/28 01:28:22;;;;;;;3.45;2.13;;;;;;;;;;4989747;28;20832;-91
2021/08/28 01:30:52;;;;;;;2.70;1.92;;;;;;;;;;4989390;28;20413;-89
2021/08/28 01:33:22;;;;;;;3.25;2.45;;;;;;;;;;4989809;28;20432;-89
2021/08/28 01:35:51;;;;;;;4.22;2.10;;;;;;;;;;4990199;28;20539;-90
2021/08/28 01:38:19;;;;;;;3.25;2.05;;;;;;;;;;4989230;28;20409;-89
2021/08/28 01:40:47;;;;;;;2.30;1.75;;;;;;;;;;4990056;28;20924;-89
2021/08/28 01:43:15;;;;;;;3.33;2.08;;;;;;;;;;4985708;28;20424;-91
2021/08/28 01:45:42;;;;;;;2.38;2.10;;;;;;;;;;5000254;28;20410;-91
2021/08/28 01:48:14;;;;;;;3.42;2.00;;;;;;;;;;4990437;28;20423;-90
2021/08/28 01:50:41;;;;;;;3.67;1.95;;;;;;;;;;5001290;28;20413;-90
2021/08/28 01:53:08;;;;;;;2.88;2.00;;;;;;;;;;4991170;28;20415;-90
2021/08/28 01:55:35;;;;;;;2.58;1.98;;;;;;;;;;5008787;28;20415;-90
2021/08/28 01:58:05;;;;;;;2.97;1.90;;;;;;;;;;5008104;28;20434;-91
2021/08/28 02:00:32;;;;;;;3.03;1.88;;;;;;;;;;5006743;28;20439;-91
2021/08/28 02:02:59;;;;;;;2.33;1.80;;;;;;;;;;4994313;28;20417;-90
2021/08/28 02:05:28;;;;;;;3.25;1.80;;;;;;;;;;4997635;28;20424;-91
2021/08/28 02:08:02;;;;;;;2.80;1.88;;;;;;;;;;4998352;28;20432;-89
2021/08/28 02:10:39;;;;;;;2.90;2.20;;;;;;;;;;4999188;28;20430;-90
2021/08/28 02:13:13;;;;;;;2.17;1.98;;;;;;;;;;4999550;28;20527;-90
2021/08/28 02:15:45;;;;;;;2.63;1.95;;;;;;;;;;4998225;28;20405;-89
2021/08/28 02:18:18;;;;;;;2.60;1.92;;;;;;;;;;4997297;28;20868;-90
2021/08/28 02:20:51;;;;;;;3.38;1.90;;;;;;;;;;4993700;28;20412;-89
2021/08/28 02:23:27;;;;;;;3.13;2.00;;;;;;;;;;4997425;28;20394;-89
2021/08/28 02:26:04;;;;;;;2.17;1.88;;;;;;;;;;4995473;28;20412;-90
2021/08/28 02:28:44;;;;;;;2.75;1.75;;;;;;;;;;4998973;28;20415;-90
2021/08/28 02:31:12;;;;;;;2.13;1.90;;;;;;;;;;5000750;28;20418;-91
2021/08/28 02:33:40;;;;;;;2.35;1.77;;;;;;;;;;4996641;28;20427;-91
2021/08/28 02:36:09;;;;;;;2.87;1.70;;;;;;;;;;4997892;28;20418;-90
2021/08/28 02:38:38;;;;;;;1.88;1.40;;;;;;;;;;4999431;28;20417;-91
2021/08/28 02:41:07;;;;;;;1.90;1.30;;;;;;;;;;4998323;28;20415;-90
2021/08/28 02:43:34;;;;;;;1.65;1.25;;;;;;;;;;4999396;28;20424;-90
2021/08/28 02:46:02;;;;;;;2.00;1.30;;;;;;;;;;5000330;28;20457;-90
2021/08/28 02:48:31;;;;;;;1.60;1.30;;;;;;;;;;4998921;28;20910;-90
2021/08/28 02:51:00;;;;;;;1.65;1.23;;;;;;;;;;4998258;28;20409;-91
2021/08/28 02:53:30;;;;;;;1.58;1.30;;;;;;;;;;4998445;28;20426;-89
2021/08/28 02:55:58;;;;;;;2.10;1.27;;;;;;;;;;4996962;28;20487;-90
2021/08/28 02:58:25;;;;;;;1.38;1.10;;;;;;;;;;4997455;28;20429;-90
2021/08/28 03:00:53;;;;;;;1.83;1.10;;;;;;;;;;4999726;28;20477;-88
2021/08/28 03:03:20;;;;;;;1.30;1.00;;;;;;;;;;4995812;28;20399;-88
2021/08/28 03:05:50;;;;;;;1.30;1.20;;;;;;;;;;4996773;28;20508;-89
2021/08/28 03:08:19;;;;;;;1.40;1.00;;;;;;;;;;4992828;28;20405;-89
2021/08/28 03:10:49;;;;;;;1.25;1.10;;;;;;;;;;4992647;28;20424;-89
2021/08/28 03:13:16;;;;;;;2.95;0.95;;;;;;;;;;4996650;28;20434;-89
2021/08/28 03:15:45;;;;;;;1.98;1.35;;;;;;;;;;4999979;28;20426;-89
2021/08/28 03:18:13;;;;;;;1.67;1.10;;;;;;;;;;4999892;28;20414;-89
2021/08/28 03:20:41;;;;;;;1.60;1.27;;;;;;;;;;4999945;28;20407;-88
2021/08/28 03:23:10;;;;;;;3.10;1.30;;;;;;;;;;4997096;28;20409;-89
2021/08/28 03:25:38;;;;;;;1.70;1.30;;;;;;;;;;4999142;28;20928;-89
2021/08/28 03:28:07;;;;;;;4.32;1.40;;;;;;;;;;4997709;28;20441;-89
2021/08/28 03:30:34;;;;;;;2.08;1.63;;;;;;;;;;4998851;28;20408;-89
2021/08/28 03:33:02;;;;;;;1.92;1.50;;;;;;;;;;4998103;28;20772;-90
2021/08/28 03:35:29;;;;;;;1.95;1.42;;;;;;;;;;4997828;28;20404;-89
2021/08/28 03:37:57;;;;;;;2.00;1.27;;;;;;;;;;4998834;28;20419;-90
2021/08/28 03:40:25;;;;;;;1.33;1.10;;;;;;;;;;4997197;28;20912;-89
2021/08/28 03:42:52;;;;;;;3.10;1.27;;;;;;;;;;4999325;28;20776;-90
2021/08/28 03:45:20;;;;;;;1.70;1.17;;;;;;;;;;4996465;28;20412;-91
2021/08/28 03:47:48;;;;;;;1.35;1.10;;;;;;;;;;5000137;28;20411;-89
2021/08/28 03:50:15;;;;;;;1.30;0.90;;;;;;;;;;4994970;28;20923;-89
2021/08/28 03:52:42;;;;;;;2.20;1.20;;;;;;;;;;4999560;28;20420;-90
2021/08/28 03:55:09;;;;;;;2.20;1.15;;;;;;;;;;5006494;28;20415;-90
2021/08/28 03:57:36;;;;;;;1.58;1.10;;;;;;;;;;5020153;28;20391;-90
2021/08/28 04:00:04;;;;;;;2.33;1.20;;;;;;;;;;5004215;28;20409;-89
2021/08/28 04:02:32;;;;;;;1.40;1.20;;;;;;;;;;4997366;28;20779;-90
2021/08/28 04:04:59;;;;;;;2.43;1.13;;;;;;;;;;4990776;28;20612;-89
2021/08/28 04:07:26;;;;;;;1.93;1.00;;;;;;;;;;4992664;28;20423;-89
2021/08/28 04:09:53;;;;;;;1.50;0.98;;;;;;;;;;4992917;28;20428;-91
2021/08/28 04:12:20;;;;;;;1.75;0.90;;;;;;;;;;4993533;28;20423;-90
2021/08/28 04:14:46;;;;;;;1.10;0.90;;;;;;;;;;4994318;28;20922;-91
2021/08/28 04:17:13;;;;;;;1.88;0.95;;;;;;;;;;4999046;28;20432;-91
2021/08/28 04:19:42;;;;;;;2.08;1.10;;;;;;;;;;4990937;28;20762;-90
2021/08/28 04:22:09;;;;;;;1.20;0.90;;;;;;;;;;4991028;28;20915;-91
2021/08/28 04:24:35;;;;;;;1.42;0.85;;;;;;;;;;4993297;28;20420;-90
2021/08/28 04:27:03;;;;;;;1.50;1.05;;;;;;;;;;4997851;28;20409;-90
2021/08/28 04:29:30;;;;;;;1.30;1.10;;;;;;;;;;4995873;28;20916;-91
2021/08/28 04:31:57;;;;;;;2.35;1.10;;;;;;;;;;4990759;28;20750;-91
2021/08/28 04:34:24;;;;;;;1.75;1.20;;;;;;;;;;4996959;28;20432;-91
2021/08/28 04:36:52;;;;;;;1.00;0.90;;;;;;;;;;4997223;28;20412;-91
2021/08/28 04:39:20;;;;;;;2.30;1.20;;;;;;;;;;4991217;28;20413;-91
2021/08/28 04:41:47;;;;;;;2.13;0.95;;;;;;;;;;4990563;28;20405;-91
2021/08/28 04:44:14;;;;;;;2.22;1.20;;;;;;;;;;4996363;28;20418;-91
2021/08/28 04:46:41;;;;;;;1.15;1.02;;;;;;;;;;4994821;28;20399;-90
2021/08/28 04:49:08;;;;;;;2.05;1.13;;;;;;;;;;4997624;28;20420;-89
2021/08/28 04:51:35;;;;;;;1.80;1.10;;;;;;;;;;4997666;28;20427;-90
2021/08/28 04:54:03;;;;;;;1.70;1.20;;;;;;;;;;4996400;28;20451;-90
2021/08/28 04:56:30;;;;;;;1.67;0.90;;;;;;;;;;4993161;28;20408;-90
2021/08/28 04:58:57;;;;;;;1.40;1.20;;;;;;;;;;4997103;28;20416;-89
2021/08/28 05:01:24;;;;;;;2.50;1.10;;;;;;;;;;4999157;28;20434;-89
2021/08/28 05:03:51;;;;;;;1.83;0.95;;;;;;;;;;4996047;28;20405;-90
2021/08/28 05:06:18;;;;;;;2.72;1.05;;;;;;;;;;4997155;28;20403;-91
2021/08/28 05:08:45;;;;;;;2.05;1.00;;;;;;;;;;4988700;28;20485;-89
2021/08/28 05:11:13;;;;;;;1.48;1.10;;;;;;;;;;4989343;28;20417;-90
2021/08/28 05:13:40;;;;;;;1.83;1.03;;;;;;;;;;4994027;28;20882;-90
2021/08/28 05:16:07;;;;;;;1.67;1.17;;;;;;;;;;4989574;28;20412;-90
2021/08/28 05:18:34;;;;;;;2.50;1.42;;;;;;;;;;4989635;28;20424;-89
2021/08/28 05:21:01;;;;;;;1.77;1.17;;;;;;;;;;4989938;28;20944;-90
2021/08/28 05:23:28;;;;;;;1.90;1.30;;;;;;;;;;4972572;28;20452;-90
2021/08/28 05:25:56;;;;;;;1.88;1.10;;;;;;;;;;4991060;28;20405;-91
2021/08/28 05:28:24;;;;;;;1.60;1.10;;;;;;;;;;4989170;28;20774;-91
2021/08/28 05:30:51;;;;;;;1.67;1.20;;;;;;;;;;4989775;28;20427;-90
2021/08/28 05:33:18;;;;;;;1.60;0.95;;;;;;;;;;4989334;28;20416;-90
2021/08/28 05:35:45;;;;;;;2.70;1.45;;;;;;;;;;4995586;28;20395;-91
2021/08/28 05:38:12;;;;;;;1.70;1.13;;;;;;;;;;4997446;28;20402;-91
2021/08/28 05:40:39;;;;;;;1.92;1.20;;;;;;;;;;4997621;28;20918;-90
2021/08/28 05:43:06;;;;;;;1.38;1.10;;;;;;;;;;4997801;28;20428;-89
2021/08/28 05:45:34;;;;;;;2.10;1.25;;;;;;;;;;4997162;28;20479;-90
2021/08/28 05:48:01;;;;;;;2.28;1.10;;;;;;;;;;4997255;28;20912;-90
2021/08/28 05:50:28;;;;;;;3.97;1.10;;;;;;;;;;4996748;28;20409;-90
2021/08/28 05:52:55;;;;;;;1.60;1.10;;;;;;;;;;4990954;28;20416;-90
2021/08/28 05:55:22;;;;;;;1.85;1.27;;;;;;;;;;4988783;28;20432;-89
2021/08/28 05:57:48;;;;;;;3.25;1.35;;;;;;;;;;4989302;28;20412;-89
2021/08/28 06:00:16;;;;;;;1.50;1.20;;;;;;;;;;4988930;28;20413;-90
2021/08/28 06:02:44;;;;;;;2.17;1.40;;;;;;;;;;4994293;28;20411;-91
2021/08/28 06:05:12;;;;;;;2.40;1.20;;;;;;;;;;4997247;28;20403;-90
2021/08/28 06:07:40;;;;;;;4.00;1.67;;;;;;;;;;4997194;28;20419;-88
2021/08/28 06:10:08;;;;;;;2.53;1.30;;;;;;;;;;4996010;28;20435;-91
2021/08/28 06:12:36;;;;;;;2.10;1.33;;;;;;;;;;4997099;28;20424;-90
2021/08/28 06:15:05;;;;;;;1.63;1.40;;;;;;;;;;4992160;28;20440;-89
2021/08/28 06:17:32;;;;;;;1.77;1.30;;;;;;;;;;4989022;28;20431;-89
2021/08/28 06:20:00;;;;;;;1.98;1.50;;;;;;;;;;4988564;28;20412;-89
2021/08/28 06:22:27;;;;;;;1.88;1.40;;;;;;;;;;4994097;28;20423;-91
2021/08/28 06:24:54;;;;;;;2.28;1.50;;;;;;;;;;4996468;28;20416;-89
2021/08/28 06:27:21;;;;;;;2.40;1.50;;;;;;;;;;4996302;28;20399;-90
2021/08/28 06:29:48;;;;;;;2.08;1.60;;;;;;;;;;4993004;28;20409;-88
2021/08/28 06:32:14;;;;;;;1.95;1.40;;;;;;;;;;4986790;28;20415;-89
2021/08/28 06:34:41;;;;;;;3.47;1.50;;;;;;;;;;4988175;28;20420;-90
2021/08/28 06:37:10;;;;;;;2.93;1.70;;;;;;;;;;4989316;28;20420;-91
2021/08/28 06:39:37;;;;;;;2.17;1.80;;;;;;;;;;4988151;28;20423;-89
2021/08/28 06:42:04;;;;;;;3.47;1.73;;;;;;;;;;4988029;28;20416;-89
2021/08/28 06:44:31;;;;;;;4.05;1.85;;;;;;;;;;4988221;28;20397;-88
2021/08/28 06:46:57;;;;;;;2.10;1.73;;;;;;;;;;4994961;28;20411;-90
2021/08/28 06:49:24;;;;;;;2.72;1.80;;;;;;;;;;4988117;28;20897;-91
2021/08/28 06:51:53;;;;;;;3.50;2.10;;;;;;;;;;4992016;28;20821;-89
2021/08/28 06:54:21;;;;;;;2.60;2.00;;;;;;;;;;4987804;28;20440;-90
2021/08/28 06:56:48;;;;;;;2.67;2.08;;;;;;;;;;4996358;28;20407;-89
2021/08/28 06:59:15;;;;;;;2.43;1.70;;;;;;;;;;4986307;28;20499;-89
2021/08/28 07:01:42;;;;;;;4.63;2.15;;;;;;;;;;4989758;28;20420;-90
2021/08/28 07:04:09;;;;;;;4.63;1.90;;;;;;;;;;4995389;28;20411;-90
2021/08/28 07:06:36;;;;;;;3.15;2.00;;;;;;;;;;4989576;28;20901;-90
2021/08/28 07:09:03;;;;;;;3.15;2.00;;;;;;;;;;4987801;28;20407;-90
2021/08/28 07:11:31;;;;;;;3.45;2.05;;;;;;;;;;4987514;28;20417;-89
2021/08/28 07:13:58;;;;;;;2.90;1.95;;;;;;;;;;4996765;28;20464;-89
2021/08/28 07:16:26;;;;;;;2.75;2.17;;;;;;;;;;4996996;28;20774;-90
2021/08/28 07:18:53;;;;;;;2.88;1.85;;;;;;;;;;4992356;28;21402;-89
2021/08/28 07:21:20;;;;;;;3.78;2.10;;;;;;;;;;4991273;28;20406;-90
2021/08/28 07:23:47;;;;;;;2.20;1.95;;;;;;;;;;4993253;28;20990;-91
2021/08/28 07:26:15;;;;;;;3.05;2.00;;;;;;;;;;4995450;28;20494;-90
2021/08/28 07:28:43;;;;;;;2.15;1.95;;;;;;;;;;4998303;28;20408;-91
2021/08/28 07:31:10;;;;;;;2.58;1.90;;;;;;;;;;4999849;28;20403;-90
2021/08/28 07:33:37;;;;;;;3.35;1.90;;;;;;;;;;5001931;28;20388;-91
2021/08/28 07:36:04;;;;;;;2.17;1.70;;;;;;;;;;5022145;28;20411;-89
2021/08/28 07:38:31;;;;;;;2.72;2.00;;;;;;;;;;5009848;28;20502;-89
2021/08/28 07:40:58;;;;;;;2.70;2.15;;;;;;;;;;4996300;28;20428;-91
2021/08/28 07:43:25;;;;;;;2.97;1.88;;;;;;;;;;4996505;28;20419;-91
2021/08/28 07:45:53;;;;;;;2.55;1.92;;;;;;;;;;4996850;28;20418;-92
2021/08/28 07:48:20;;;;;;;3.47;1.85;;;;;;;;;;4993141;28;20410;-91
2021/08/28 07:50:47;;;;;;;3.30;2.10;;;;;;;;;;4991864;28;20408;-89
2021/08/28 07:53:14;;;;;;;2.75;2.05;;;;;;;;;;4991602;28;20439;-92
2021/08/28 07:55:41;;;;;;;3.08;2.15;;;;;;;;;;4991415;28;20429;-90
2021/08/28 07:58:08;;;;;;;2.93;2.10;;;;;;;;;;4991788;28;20474;-90
2021/08/28 08:00:35;;;;;;;3.20;2.10;;;;;;;;;;4997747;28;20453;-91
2021/08/28 08:03:03;;;;;;;3.58;2.00;;;;;;;;;;4993628;28;20411;-89
2021/08/28 08:05:30;;;;;;;3.17;2.28;;;;;;;;;;4994664;28;20405;-90
2021/08/28 08:07:57;;;;;;;3.58;2.50;;;;;;;;;;5000404;28;20431;-90
2021/08/28 08:10:24;;;;;;;4.50;2.35;;;;;;;;;;4995471;28;20956;-90
2021/08/28 08:12:51;;;;;;;3.53;2.33;;;;;;;;;;4991132;28;20414;-90
2021/08/28 08:15:18;;;;;;;7.38;2.42;;;;;;;;;;4998606;28;20419;-91
2021/08/28 08:17:45;;;;;;;3.35;2.40;;;;;;;;;;4989041;28;20397;-91
2021/08/28 08:20:14;;;;;;;2.73;2.27;;;;;;;;;;4990418;28;20504;-89
2021/08/28 08:22:41;;;;;;;3.55;2.17;;;;;;;;;;4990775;28;20405;-91
2021/08/28 08:25:09;;;;;;;5.40;2.35;;;;;;;;;;4993307;28;20412;-90
2021/08/28 08:27:36;;;;;;;4.13;2.17;;;;;;;;;;4996926;28;20413;-90
2021/08/28 08:30:03;;;;;;;2.97;2.03;;;;;;;;;;4998778;28;20784;-90
2021/08/28 08:32:30;;;;;;;3.15;2.15;;;;;;;;;;4990560;28;20412;-89
2021/08/28 08:34:57;;;;;;;3.15;2.22;;;;;;;;;;4990416;28;20420;-89
2021/08/28 08:37:25;;;;;;;2.30;2.10;;;;;;;;;;4999501;28;20941;-89
2021/08/28 08:39:52;;;;;;;3.17;2.20;;;;;;;;;;5000190;28;20748;-89
2021/08/28 08:42:21;;;;;;;3.17;2.10;;;;;;;;;;5000217;28;20414;-91
2021/08/28 08:44:48;;;;;;;2.63;1.88;;;;;;;;;;4988303;28;20412;-89
2021/08/28 08:47:16;;;;;;;3.05;2.10;;;;;;;;;;4988246;28;20445;-90
2021/08/28 08:49:43;;;;;;;3.63;2.20;;;;;;;;;;4989956;28;20400;-90
2021/08/28 08:52:12;;;;;;;2.63;2.13;;;;;;;;;;4990121;28;20405;-91
2021/08/28 08:54:41;;;;;;;2.85;1.90;;;;;;;;;;4990200;28;20412;-89
2021/08/28 08:57:09;;;;;;;3.05;1.90;;;;;;;;;;4997005;28;20412;-89
2021/08/28 08:59:36;;;;;;;2.40;1.70;;;;;;;;;;5000956;28;20412;-90
2021/08/28 09:02:03;;;;;;;1.95;1.60;;;;;;;;;;4992818;28;20423;-89
2021/08/28 09:04:30;;;;;;;2.90;1.70;;;;;;;;;;4989966;28;20416;-90
2021/08/28 09:06:57;;;;;;;3.00;2.17;;;;;;;;;;4993038;28;20420;-90
2021/08/28 09:09:24;;;;;;;2.83;2.20;;;;;;;;;;4999589;28;20469;-89
2021/08/28 09:12:03;;;;;;;3.53;1.98;;;;;;;;;;5000065;28;20415;-89
2021/08/28 09:14:30;;;;;;;3.92;2.60;;;;;;;;;;5000457;28;20448;-88
2021/08/28 09:16:57;;;;;;;1.90;1.63;;;;;;;;;;5001232;28;20410;-91
2021/08/28 09:19:39;;;;;;;2.70;1.90;;;;;;;;;;4989677;28;20417;-91
2021/08/28 09:22:07;;;;;;;3.37;1.90;;;;;;;;;;4996639;28;20428;-89
2021/08/28 09:24:45;;;;;;;2.53;1.45;;;;;;;;;;4990035;28;20508;-89
2021/08/28 09:27:31;;;;;;;2.53;1.10;;;;;;;;;;5000326;28;20438;-89
2021/08/28 09:29:58;;;;;;;2.38;1.40;;;;;;;;;;4989033;28;20420;-89
2021/08/28 09:32:25;;;;;;;1.30;0.98;;;;;;;;;;4989179;28;20416;-91
2021/08/28 09:34:52;;;;;;;1.60;1.00;;;;;;;;;;4989333;28;20421;-91
2021/08/28 09:37:19;;;;;;;1.23;0.90;;;;;;;;;;4993761;28;20420;-91
2021/08/28 09:39:48;;;;;;;1.23;1.00;;;;;;;;;;4987169;28;20409;-90
2021/08/28 09:42:21;;;;;;;1.48;0.80;;;;;;;;;;4986773;28;20504;-91
2021/08/28 09:44:50;;;;;;;0.85;0.77;;;;;;;;;;4987442;28;20415;-90
2021/08/28 09:47:18;;;;;;;0.93;0.80;;;;;;;;;;4986851;28;20770;-91
2021/08/28 09:49:47;;;;;;;1.60;0.90;;;;;;;;;;4998416;28;20410;-91
2021/08/28 09:52:17;;;;;;;0.70;0.70;;;;;;;;;;4999200;28;20424;-91
2021/08/28 09:54:44;;;;;;;1.38;0.98;;;;;;;;;;5001208;28;20403;-90
2021/08/28 09:57:11;;;;;;;1.33;0.70;;;;;;;;;;5000496;28;20399;-91
2021/08/28 09:59:39;;;;;;;0.90;0.80;;;;;;;;;;5000606;28;20404;-91
2021/08/28 10:02:10;;;;;;;1.73;1.10;;;;;;;;;;4995338;28;20412;-90
2021/08/28 10:04:49;;;;;;;1.38;0.90;;;;;;;;;;4999810;28;20417;-89
2021/08/28 10:07:20;;;;;;;1.60;0.80;;;;;;;;;;4969554;28;20404;-91
2021/08/28 10:09:49;;;;;;;2.20;0.77;;;;;;;;;;4986677;28;20448;-91
2021/08/28 10:12:19;;;;;;;1.15;0.90;;;;;;;;;;5007435;23;20420;-95
2021/08/28 10:14:48;;;;;;;1.70;0.82;;;;;;;;;;4989944;28;20407;-96
2021/08/28 10:17:17;;;;;;;0.70;0.70;;;;;;;;;;4995981;28;20481;-96
2021/08/28 10:19:48;;;;;;;1.17;0.90;;;;;;;;;;4989639;28;20588;-96
2021/08/28 10:22:19;;;;;;;0.90;0.80;;;;;;;;;;4989977;28;20413;-96
2021/08/28 10:24:49;;;;;;;3.38;0.90;;;;;;;;;;4992909;28;20889;-96
2021/08/28 10:27:16;;;;;;;1.15;0.85;;;;;;;;;;4994136;28;20420;-96
2021/08/28 10:29:45;;;;;;;1.77;0.73;;;;;;;;;;4999308;28;20414;-96
2021/08/28 10:32:14;;;;;;;1.52;0.73;;;;;;;;;;4993869;28;20412;-96
2021/08/28 10:34:41;;;;;;;0.95;0.80;;;;;;;;;;4994789;28;20425;-96
2021/08/28 10:37:08;;;;;;;0.90;0.70;;;;;;;;;;4996805;28;20428;-96
2021/08/28 10:39:36;;;;;;;1.60;0.80;;;;;;;;;;5001473;28;20416;-96
2021/08/28 10:42:04;;;;;;;0.60;0.60;;;;;;;;;;4990605;28;20412;-96
2021/08/28 10:44:31;;;;;;;1.23;0.80;;;;;;;;;;4989419;28;20940;-96
2021/08/28 10:46:58;;;;;;;3.53;1.05;;;;;;;;;;4993700;28;20420;-96
2021/08/28 10:49:27;;;;;;;1.27;0.82;;;;;;;;;;4992735;28;20419;-96
2021/08/28 10:51:56;;;;;;;1.03;0.70;;;;;;;;;;5000850;28;20422;-96
2021/08/28 10:54:29;;;;;;;2.03;0.90;;;;;;;;;;4994627;28;20413;-96
2021/08/28 10:56:58;;;;;;;1.98;0.85;;;;;;;;;;4988411;28;20424;-96
2021/08/28 10:59:27;;;;;;;1.00;0.90;;;;;;;;;;4992223;28;20477;-96
2021/08/28 11:02:02;;;;;;;0.90;0.80;;;;;;;;;;5000943;28;20415;-96
2021/08/28 11:04:36;;;;;;;1.52;0.90;;;;;;;;;;5000744;28;20427;-96
2021/08/28 11:07:41;;;;;;;1.27;0.90;;;;;;;;;;5000710;28;20431;-96
2021/08/28 11:10:19;;;;;;;0.85;0.80;;;;;;;;;;4909088;29;20856;-96
2021/08/28 11:12:58;;;;;;;0.80;0.80;;;;;;;;;;4977952;28;20424;-96
2021/08/28 11:15:52;;;;;;;1.73;1.00;;;;;;;;;;4987409;28;20416;-96
2021/08/28 11:18:45;;;;;;;1.75;0.85;;;;;;;;;;4991950;28;20411;-96
2021/08/28 11:21:14;;;;;;;0.95;0.80;;;;;;;;;;4995264;28;20413;-96
2021/08/28 11:23:44;;;;;;;0.88;0.70;;;;;;;;;;4988637;28;20583;-96
2021/08/28 11:26:12;;;;;;;0.80;0.80;;;;;;;;;;4991922;28;20404;-95
2021/08/28 11:28:42;;;;;;;1.23;0.80;;;;;;;;;;4993215;28;20511;-96
2021/08/28 11:31:10;;;;;;;0.82;0.70;;;;;;;;;;5005213;28;20832;-96
2021/08/28 11:33:39;;;;;;;1.13;0.70;;;;;;;;;;5004889;28;20424;-96
2021/08/28 11:36:19;;;;;;;0.93;0.80;;;;;;;;;;4993976;28;20411;-96
2021/08/28 11:38:59;;;;;;;0.90;0.60;;;;;;;;;;4990738;28;20420;-96
2021/08/28 11:41:27;;;;;;;0.93;0.63;;;;;;;;;;5001514;28;20423;-95
2021/08/28 11:43:57;;;;;;;0.88;0.70;;;;;;;;;;4998111;28;20421;-96
2021/08/28 11:46:25;;;;;;;3.30;0.70;;;;;;;;;;4999561;28;20417;-96
2021/08/28 11:48:53;;;;;;;0.88;0.52;;;;;;;;;;5000451;28;20406;-96
2021/08/28 11:51:25;;;;;;;1.77;0.90;;;;;;;;;;5005213;28;20407;-96
2021/08/28 11:53:55;;;;;;;0.70;0.70;;;;;;;;;;5005499;28;20411;-96
2021/08/28 11:56:24;;;;;;;0.95;0.73;;;;;;;;;;4997647;28;20887;-96
2021/08/28 11:58:54;;;;;;;0.87;0.80;;;;;;;;;;4992512;28;20420;-95
2021/08/28 12:01:33;;;;;;;4.18;1.08;;;;;;;;;;4995583;28;20406;-95
2021/08/28 12:04:02;;;;;;;0.90;0.57;;;;;;;;;;4999542;28;20435;-96
2021/08/28 12:06:30;;;;;;;0.80;0.70;;;;;;;;;;4999370;28;20426;-96
2021/08/28 12:08:59;;;;;;;0.85;0.70;;;;;;;;;;5002806;28;20416;-95
2021/08/28 12:11:27;;;;;;;0.95;0.50;;;;;;;;;;4999040;28;20897;-96
2021/08/28 12:13:56;;;;;;;2.30;0.70;;;;;;;;;;4994819;28;20410;-95
2021/08/28 12:16:26;;;;;;;1.50;0.80;;;;;;;;;;5000320;28;20435;-95
2021/08/28 12:19:06;;;;;;;0.82;0.73;;;;;;;;;;5003178;28;20498;-96
2021/08/28 12:21:34;;;;;;;1.27;0.60;;;;;;;;;;4991940;28;20902;-96
2021/08/28 12:24:21;;;;;;;0.73;0.70;;;;;;;;;;5000366;28;20411;-96
2021/08/28 12:26:51;;;;;;;0.70;0.70;;;;;;;;;;4994227;28;20437;-96
2021/08/28 12:29:27;;;;;;;1.33;0.60;;;;;;;;;;4990863;28;20419;-96
2021/08/28 12:31:56;;;;;;;0.70;0.50;;;;;;;;;;4996313;28;20421;-96
2021/08/28 12:34:24;;;;;;;0.70;0.70;;;;;;;;;;5004606;28;20917;-96
2021/08/28 12:36:52;;;;;;;1.40;0.70;;;;;;;;;;5006959;28;20418;-96
2021/08/28 12:39:21;;;;;;;0.93;0.80;;;;;;;;;;5000483;28;20419;-96
2021/08/28 12:41:48;;;;;;;0.70;0.70;;;;;;;;;;4989382;28;20769;-96
2021/08/28 12:44:16;;;;;;;0.60;0.60;;;;;;;;;;4991804;28;20415;-96
2021/08/28 12:46:47;;;;;;;0.77;0.60;;;;;;;;;;4991791;28;20428;-96
2021/08/28 12:49:17;;;;;;;0.70;0.68;;;;;;;;;;4998064;28;20411;-95
2021/08/28 12:51:56;;;;;;;1.63;0.60;;;;;;;;;;5005665;28;20407;-95
2021/08/28 12:54:30;;;;;;;1.30;0.50;;;;;;;;;;4989321;28;20417;-96
2021/08/28 12:57:03;;;;;;;0.73;0.60;;;;;;;;;;4991918;28;20428;-96
2021/08/28 12:59:31;;;;;;;0.88;0.63;;;;;;;;;;5004574;28;20415;-96
2021/08/28 13:01:59;;;;;;;0.82;0.52;;;;;;;;;;4998586;28;20893;-96
2021/08/28 13:04:32;;;;;;;1.83;0.60;;;;;;;;;;4990928;28;20413;-96
2021/08/28 13:07:13;;;;;;;0.60;0.52;;;;;;;;;;5003876;28;20430;-96
2021/08/28 13:10:00;;;;;;;1.13;0.65;;;;;;;;;;5002484;28;21214;-96
2021/08/28 13:12:44;;;;;;;1.90;0.90;;;;;;;;;;5001064;28;20433;-96
2021/08/28 13:15:12;;;;;;;0.70;0.70;;;;;;;;;;4987524;28;20431;-96
2021/08/28 13:17:40;;;;;;;0.80;0.60;;;;;;;;;;4995999;28;20989;-96
2021/08/28 13:20:10;;;;;;;1.15;0.60;;;;;;;;;;5003755;28;20483;-96
2021/08/28 13:22:40;;;;;;;0.65;0.65;;;;;;;;;;5005011;28;20417;-96
2021/08/28 13:25:20;;;;;;;1.00;0.80;;;;;;;;;;5004947;28;20421;-96
2021/08/28 13:27:47;;;;;;;0.70;0.60;;;;;;;;;;4987707;28;20420;-96
2021/08/28 13:30:19;;;;;;;1.35;0.73;;;;;;;;;;4996913;28;20407;-96
2021/08/28 13:33:02;;;;;;;0.60;0.60;;;;;;;;;;4990644;28;20424;-96
2021/08/28 13:35:32;;;;;;;0.80;0.70;;;;;;;;;;4989621;28;20837;-96
2021/08/28 13:38:01;;;;;;;1.10;0.70;;;;;;;;;;4989786;28;20519;-96
2021/08/28 13:40:31;;;;;;;1.00;0.80;;;;;;;;;;4989894;28;20422;-96
2021/08/28 13:42:58;;;;;;;1.50;0.70;;;;;;;;;;4989966;28;20765;-95
2021/08/28 13:45:25;;;;;;;1.63;0.70;;;;;;;;;;4999507;28;20646;-96
2021/08/28 13:47:53;;;;;;;1.05;0.70;;;;;;;;;;4998231;28;20425;-96
2021/08/28 13:50:21;;;;;;;0.68;0.50;;;;;;;;;;4993005;28;20415;-96
2021/08/28 13:52:49;;;;;;;1.20;0.60;;;;;;;;;;4987117;28;20516;-96
2021/08/28 13:55:17;;;;;;;0.63;0.60;;;;;;;;;;4987203;28;20923;-96
2021/08/28 13:57:47;;;;;;;1.02;0.77;;;;;;;;;;4989698;28;20424;-96
2021/08/28 14:00:17;;;;;;;0.70;0.57;;;;;;;;;;4989579;28;20919;-96
2021/08/28 14:02:45;;;;;;;1.27;0.60;;;;;;;;;;4989687;28;20423;-96
2021/08/28 14:05:14;;;;;;;1.08;0.70;;;;;;;;;;4999309;28;20410;-96
2021/08/28 14:07:41;;;;;;;1.40;0.60;;;;;;;;;;5005018;28;20426;-96
2021/08/28 14:10:10;;;;;;;0.57;0.50;;;;;;;;;;5003246;28;20416;-95
2021/08/28 14:12:37;;;;;;;0.70;0.67;;;;;;;;;;5004411;28;20843;-96
2021/08/28 14:15:07;;;;;;;1.77;0.60;;;;;;;;;;5004595;28;21016;-96
2021/08/28 14:17:33;;;;;;;0.52;0.50;;;;;;;;;;4998345;28;20435;-96
2021/08/28 14:20:01;;;;;;;0.63;0.60;;;;;;;;;;5004267;28;20422;-96
2021/08/28 14:22:28;;;;;;;1.20;0.70;;;;;;;;;;5004431;28;20425;-96
2021/08/28 14:24:55;;;;;;;1.48;0.57;;;;;;;;;;5004175;28;20414;-95
2021/08/28 14:27:22;;;;;;;1.10;0.70;;;;;;;;;;5004311;28;20417;-96
2021/08/28 14:29:50;;;;;;;1.02;0.70;;;;;;;;;;4995790;28;20435;-96
2021/08/28 14:32:18;;;;;;;0.60;0.60;;;;;;;;;;4997794;28;20932;-95
2021/08/28 14:34:45;;;;;;;0.90;0.60;;;;;;;;;;4995774;28;20413;-96
2021/08/28 14:37:13;;;;;;;1.00;0.53;;;;;;;;;;4995188;28;20895;-96
2021/08/28 14:39:40;;;;;;;0.60;0.50;;;;;;;;;;4989932;28;20882;-96
2021/08/28 14:42:07;;;;;;;0.77;0.60;;;;;;;;;;4989286;28;20424;-96
2021/08/28 14:44:34;;;;;;;0.60;0.60;;;;;;;;;;5000416;28;20420;-96
2021/08/28 14:47:02;;;;;;;0.90;0.70;;;;;;;;;;5002771;28;20442;-96
2021/08/28 14:49:31;;;;;;;1.70;0.65;;;;;;;;;;4999765;28;20411;-96
2021/08/28 14:51:58;;;;;;;1.10;0.80;;;;;;;;;;4991780;28;20424;-96
2021/08/28 14:54:25;;;;;;;0.80;0.52;;;;;;;;;;5002648;28;20418;-96